sensor_id;sensor_type;location;lat;lon;timestamp;temperature;humidity
44833;DHT22;30569;51.252;9.830;2022-11-20T00:00:56;-7.50;99.90
44833;DHT22;30569;51.252;9.830;2022-11-20T00:03:22;-7.70;99.90
44833;DHT22;30569;51.252;9.830;2022-11-20T00:05:47;-7.80;99.90
44833;DHT22;30569;51.252;9.830;2022-11-20T00:08:13;-7.80;99.90
44833;DHT22;30569;51.252;9.830;2022-11-20T00:10:39;-7.90;99.90
44833;DHT22;30569;51.252;9.830;2022-11-20T00:13:06;-8.00;99.90
44833;DHT22;30569;51.252;9.830;2022-11-20T00:15:31;-8.00;99.90
44833;DHT22;30569;51.252;9.830;2022-11-20T00:17:57;-8.00;99.90
44833;DHT22;30569;51.252;9.830;2022-11-20T00:20:23;-7.90;99.90
44833;DHT22;30569;51.252;9.830;2022-11-20T00:22:49;-7.90;99.90
44833;DHT22;30569;51.252;9.830;2022-11-20T00:25:15;-7.80;99.90
44833;DHT22;30569;51.252;9.830;2022-11-20T00:27:40;-7.90;99.90
44833;DHT22;30569;51.252;9.830;2022-11-20T00:30:06;-7.80;99.90
44833;DHT22;30569;51.252;9.830;2022-11-20T00:32:32;-7.90;99.90
44833;DHT22;30569;51.252;9.830;2022-11-20T00:34:58;-8.10;99.90
44833;DHT22;30569;51.252;9.830;2022-11-20T00:37:23;-8.10;99.90
44833;DHT22;30569;51.252;9.830;2022-11-20T00:39:49;-8.10;99.90
44833;DHT22;30569;51.252;9.830;2022-11-20T00:42:14;-8.20;99.90
44833;DHT22;30569;51.252;9.830;2022-11-20T00:44:40;-8.20;99.90
44833;DHT22;30569;51.252;9.830;2022-11-20T00:49:31;-8.00;99.90
44833;DHT22;30569;51.252;9.830;2022-11-20T01:01:40;-7.80;99.90
44833;DHT22;30569;51.252;9.830;2022-11-20T01:04:06;-7.90;99.90
44833;DHT22;30569;51.252;9.830;2022-11-20T01:06:34;-8.00;99.90
44833;DHT22;30569;51.252;9.830;2022-11-20T01:09:02;-8.10;99.90
44833;DHT22;30569;51.252;9.830;2022-11-20T01:11:30;-8.00;99.90
44833;DHT22;30569;51.252;9.830;2022-11-20T01:13:58;-7.90;99.90
44833;DHT22;30569;51.252;9.830;2022-11-20T01:16:38;-8.30;99.90
44833;DHT22;30569;51.252;9.830;2022-11-20T01:19:07;-8.30;99.90
44833;DHT22;30569;51.252;9.830;2022-11-20T01:21:35;-8.10;99.90
44833;DHT22;30569;51.252;9.830;2022-11-20T01:24:02;-8.00;99.90
44833;DHT22;30569;51.252;9.830;2022-11-20T01:26:33;-8.00;99.90
44833;DHT22;30569;51.252;9.830;2022-11-20T01:28:59;-8.10;99.90
44833;DHT22;30569;51.252;9.830;2022-11-20T01:31:30;-8.20;99.90
44833;DHT22;30569;51.252;9.830;2022-11-20T01:33:59;-8.10;99.90
44833;DHT22;30569;51.252;9.830;2022-11-20T01:36:27;-8.10;99.90
44833;DHT22;30569;51.252;9.830;2022-11-20T01:38:54;-8.30;99.90
44833;DHT22;30569;51.252;9.830;2022-11-20T01:44:05;-8.00;99.90
44833;DHT22;30569;51.252;9.830;2022-11-20T01:46:35;-8.10;99.90
44833;DHT22;30569;51.252;9.830;2022-11-20T01:51:38;-8.20;99.90
44833;DHT22;30569;51.252;9.830;2022-11-20T01:54:08;-8.30;99.90
44833;DHT22;30569;51.252;9.830;2022-11-20T01:56:38;-8.40;99.90
44833;DHT22;30569;51.252;9.830;2022-11-20T01:59:07;-8.30;99.90
44833;DHT22;30569;51.252;9.830;2022-11-20T02:01:34;-8.40;99.90
44833;DHT22;30569;51.252;9.830;2022-11-20T02:04:00;-8.40;99.90
44833;DHT22;30569;51.252;9.830;2022-11-20T02:06:29;-8.50;99.90
44833;DHT22;30569;51.252;9.830;2022-11-20T02:08:56;-8.50;99.90
44833;DHT22;30569;51.252;9.830;2022-11-20T02:11:22;-8.30;99.90
44833;DHT22;30569;51.252;9.830;2022-11-20T02:13:48;-8.00;99.90
44833;DHT22;30569;51.252;9.830;2022-11-20T02:16:26;-8.10;99.90
44833;DHT22;30569;51.252;9.830;2022-11-20T02:18:54;-8.10;99.90
44833;DHT22;30569;51.252;9.830;2022-11-20T02:21:23;-8.00;99.90
44833;DHT22;30569;51.252;9.830;2022-11-20T02:26:55;-8.70;99.90
44833;DHT22;30569;51.252;9.830;2022-11-20T02:29:28;-8.40;99.90
44833;DHT22;30569;51.252;9.830;2022-11-20T02:31:56;-8.20;99.90
44833;DHT22;30569;51.252;9.830;2022-11-20T02:34:23;-8.00;99.90
44833;DHT22;30569;51.252;9.830;2022-11-20T02:36:49;-8.00;99.90
44833;DHT22;30569;51.252;9.830;2022-11-20T02:39:16;-8.10;99.90
44833;DHT22;30569;51.252;9.830;2022-11-20T02:44:08;-8.10;99.90
44833;DHT22;30569;51.252;9.830;2022-11-20T02:46:34;-8.00;99.90
44833;DHT22;30569;51.252;9.830;2022-11-20T02:49:01;-7.90;99.90
44833;DHT22;30569;51.252;9.830;2022-11-20T02:51:27;-7.80;99.90
44833;DHT22;30569;51.252;9.830;2022-11-20T02:53:52;-7.70;99.90
44833;DHT22;30569;51.252;9.830;2022-11-20T02:56:18;-7.70;99.90
44833;DHT22;30569;51.252;9.830;2022-11-20T02:58:43;-7.60;99.90
44833;DHT22;30569;51.252;9.830;2022-11-20T03:01:09;-7.60;99.90
44833;DHT22;30569;51.252;9.830;2022-11-20T03:03:34;-8.20;99.90
44833;DHT22;30569;51.252;9.830;2022-11-20T03:06:00;-8.30;99.90
44833;DHT22;30569;51.252;9.830;2022-11-20T03:15:44;-7.90;99.90
44833;DHT22;30569;51.252;9.830;2022-11-20T03:30:20;-7.80;99.90
44833;DHT22;30569;51.252;9.830;2022-11-20T03:32:46;-7.90;99.90
44833;DHT22;30569;51.252;9.830;2022-11-20T03:37:37;-8.00;99.90
44833;DHT22;30569;51.252;9.830;2022-11-20T03:40:03;-8.30;99.90
44833;DHT22;30569;51.252;9.830;2022-11-20T03:42:29;-8.90;99.90
44833;DHT22;30569;51.252;9.830;2022-11-20T03:45:16;-8.90;99.90
44833;DHT22;30569;51.252;9.830;2022-11-20T03:47:42;-8.90;99.90
44833;DHT22;30569;51.252;9.830;2022-11-20T03:50:09;-8.60;99.90
44833;DHT22;30569;51.252;9.830;2022-11-20T03:52:35;-8.60;99.90
44833;DHT22;30569;51.252;9.830;2022-11-20T03:55:00;-8.50;99.90
44833;DHT22;30569;51.252;9.830;2022-11-20T03:59:52;-8.20;99.90
44833;DHT22;30569;51.252;9.830;2022-11-20T04:02:17;-8.00;99.90
44833;DHT22;30569;51.252;9.830;2022-11-20T04:04:43;-8.10;99.90
44833;DHT22;30569;51.252;9.830;2022-11-20T04:07:08;-8.20;99.90
44833;DHT22;30569;51.252;9.830;2022-11-20T04:12:00;-9.10;99.90
44833;DHT22;30569;51.252;9.830;2022-11-20T04:14:25;-9.00;99.90
44833;DHT22;30569;51.252;9.830;2022-11-20T04:19:17;-8.80;99.90
44833;DHT22;30569;51.252;9.830;2022-11-20T04:21:43;-8.80;99.90
44833;DHT22;30569;51.252;9.830;2022-11-20T04:24:09;-8.70;99.90
44833;DHT22;30569;51.252;9.830;2022-11-20T04:31:30;-8.70;99.90
44833;DHT22;30569;51.252;9.830;2022-11-20T04:34:00;-8.40;99.90
44833;DHT22;30569;51.252;9.830;2022-11-20T04:36:27;-8.50;99.90
44833;DHT22;30569;51.252;9.830;2022-11-20T04:38:58;-8.10;99.90
44833;DHT22;30569;51.252;9.830;2022-11-20T04:41:27;-7.90;99.90
44833;DHT22;30569;51.252;9.830;2022-11-20T04:43:57;-7.60;99.90
44833;DHT22;30569;51.252;9.830;2022-11-20T04:46:35;-7.40;99.90
44833;DHT22;30569;51.252;9.830;2022-11-20T04:49:01;-7.00;99.90
44833;DHT22;30569;51.252;9.830;2022-11-20T04:51:27;-6.90;99.90
44833;DHT22;30569;51.252;9.830;2022-11-20T04:53:53;-6.40;99.90
44833;DHT22;30569;51.252;9.830;2022-11-20T04:56:18;-6.20;99.90
44833;DHT22;30569;51.252;9.830;2022-11-20T04:58:44;-6.00;99.90
44833;DHT22;30569;51.252;9.830;2022-11-20T05:01:15;-5.80;99.90
44833;DHT22;30569;51.252;9.830;2022-11-20T05:03:42;-5.60;99.90
44833;DHT22;30569;51.252;9.830;2022-11-20T05:06:10;-5.40;99.90
44833;DHT22;30569;51.252;9.830;2022-11-20T05:08:35;-5.10;99.90
44833;DHT22;30569;51.252;9.830;2022-11-20T05:11:08;-5.10;99.90
44833;DHT22;30569;51.252;9.830;2022-11-20T05:13:34;-4.90;99.90
44833;DHT22;30569;51.252;9.830;2022-11-20T05:16:04;-4.80;99.90
44833;DHT22;30569;51.252;9.830;2022-11-20T05:18:30;-4.70;99.90
44833;DHT22;30569;51.252;9.830;2022-11-20T05:20:59;-4.40;99.90
44833;DHT22;30569;51.252;9.830;2022-11-20T05:23:25;-4.20;99.90
44833;DHT22;30569;51.252;9.830;2022-11-20T05:25:54;-4.00;99.90
44833;DHT22;30569;51.252;9.830;2022-11-20T05:30:47;-4.00;99.90
44833;DHT22;30569;51.252;9.830;2022-11-20T05:33:12;-3.90;99.90
44833;DHT22;30569;51.252;9.830;2022-11-20T05:35:38;-3.70;99.90
44833;DHT22;30569;51.252;9.830;2022-11-20T05:38:04;-3.90;99.90
44833;DHT22;30569;51.252;9.830;2022-11-20T05:40:29;-3.70;99.90
44833;DHT22;30569;51.252;9.830;2022-11-20T05:45:21;-3.20;99.90
44833;DHT22;30569;51.252;9.830;2022-11-20T05:47:46;-3.10;99.90
44833;DHT22;30569;51.252;9.830;2022-11-20T05:50:12;-3.10;99.90
44833;DHT22;30569;51.252;9.830;2022-11-20T05:52:38;-3.70;99.90
44833;DHT22;30569;51.252;9.830;2022-11-20T05:55:04;-3.70;99.90
44833;DHT22;30569;51.252;9.830;2022-11-20T05:57:30;-3.70;99.90
44833;DHT22;30569;51.252;9.830;2022-11-20T05:59:56;-4.10;99.90
44833;DHT22;30569;51.252;9.830;2022-11-20T06:02:21;-3.90;99.90
44833;DHT22;30569;51.252;9.830;2022-11-20T06:09:39;-3.30;99.90
44833;DHT22;30569;51.252;9.830;2022-11-20T06:12:05;-3.20;99.90
44833;DHT22;30569;51.252;9.830;2022-11-20T06:14:31;-3.20;99.90
44833;DHT22;30569;51.252;9.830;2022-11-20T06:16:56;-3.00;99.90
44833;DHT22;30569;51.252;9.830;2022-11-20T06:19:22;-3.00;99.90
44833;DHT22;30569;51.252;9.830;2022-11-20T06:21:48;-2.80;99.90
44833;DHT22;30569;51.252;9.830;2022-11-20T06:26:41;-2.50;99.90
44833;DHT22;30569;51.252;9.830;2022-11-20T06:29:06;-2.50;99.90
44833;DHT22;30569;51.252;9.830;2022-11-20T06:36:26;-2.30;99.90
44833;DHT22;30569;51.252;9.830;2022-11-20T06:41:20;-2.00;99.90
44833;DHT22;30569;51.252;9.830;2022-11-20T06:43:46;-2.10;99.90
44833;DHT22;30569;51.252;9.830;2022-11-20T06:46:13;-1.90;99.90
44833;DHT22;30569;51.252;9.830;2022-11-20T06:48:42;-1.80;99.90
44833;DHT22;30569;51.252;9.830;2022-11-20T06:58:27;-2.50;99.90
44833;DHT22;30569;51.252;9.830;2022-11-20T07:00:57;-1.90;99.90
44833;DHT22;30569;51.252;9.830;2022-11-20T07:03:23;-1.50;99.90
44833;DHT22;30569;51.252;9.830;2022-11-20T07:08:14;-1.00;99.90
44833;DHT22;30569;51.252;9.830;2022-11-20T07:13:06;-0.80;99.90
44833;DHT22;30569;51.252;9.830;2022-11-20T07:15:32;-0.60;99.90
44833;DHT22;30569;51.252;9.830;2022-11-20T07:18:01;-0.50;99.90
44833;DHT22;30569;51.252;9.830;2022-11-20T07:20:27;-0.40;99.90
44833;DHT22;30569;51.252;9.830;2022-11-20T07:22:54;-0.90;99.90
44833;DHT22;30569;51.252;9.830;2022-11-20T07:25:22;-1.00;99.90
44833;DHT22;30569;51.252;9.830;2022-11-20T07:27:48;-1.10;99.90
44833;DHT22;30569;51.252;9.830;2022-11-20T07:30:14;-0.90;99.90
44833;DHT22;30569;51.252;9.830;2022-11-20T07:35:06;-0.40;99.90
44833;DHT22;30569;51.252;9.830;2022-11-20T07:37:35;-0.30;99.90
44833;DHT22;30569;51.252;9.830;2022-11-20T07:40:01;-0.30;99.90
44833;DHT22;30569;51.252;9.830;2022-11-20T07:42:27;-0.20;99.90
44833;DHT22;30569;51.252;9.830;2022-11-20T07:44:52;-0.20;99.90
44833;DHT22;30569;51.252;9.830;2022-11-20T07:47:18;-0.40;99.90
44833;DHT22;30569;51.252;9.830;2022-11-20T07:49:43;-0.50;99.90
44833;DHT22;30569;51.252;9.830;2022-11-20T07:52:10;-0.40;99.90
44833;DHT22;30569;51.252;9.830;2022-11-20T07:54:35;-0.60;99.90
44833;DHT22;30569;51.252;9.830;2022-11-20T07:59:27;-0.50;99.90
44833;DHT22;30569;51.252;9.830;2022-11-20T08:01:52;-0.50;99.90
44833;DHT22;30569;51.252;9.830;2022-11-20T08:04:18;-0.60;99.90
44833;DHT22;30569;51.252;9.830;2022-11-20T08:09:09;-0.90;99.90
44833;DHT22;30569;51.252;9.830;2022-11-20T08:11:35;-0.90;99.90
44833;DHT22;30569;51.252;9.830;2022-11-20T08:14:19;-1.40;99.90
44833;DHT22;30569;51.252;9.830;2022-11-20T08:16:46;-2.10;99.90
44833;DHT22;30569;51.252;9.830;2022-11-20T08:19:14;-2.20;99.90
44833;DHT22;30569;51.252;9.830;2022-11-20T08:21:40;-2.30;99.90
44833;DHT22;30569;51.252;9.830;2022-11-20T08:24:06;-2.50;99.90
44833;DHT22;30569;51.252;9.830;2022-11-20T08:31:27;-3.20;99.90
44833;DHT22;30569;51.252;9.830;2022-11-20T08:33:53;-3.20;99.90
44833;DHT22;30569;51.252;9.830;2022-11-20T08:36:20;-2.30;99.90
44833;DHT22;30569;51.252;9.830;2022-11-20T08:38:51;-2.40;99.90
44833;DHT22;30569;51.252;9.830;2022-11-20T08:44:09;-2.20;99.90
44833;DHT22;30569;51.252;9.830;2022-11-20T08:46:39;-2.30;99.90
44833;DHT22;30569;51.252;9.830;2022-11-20T08:49:08;-2.00;99.90
44833;DHT22;30569;51.252;9.830;2022-11-20T08:51:34;-1.90;99.90
44833;DHT22;30569;51.252;9.830;2022-11-20T08:54:00;-2.10;99.90
44833;DHT22;30569;51.252;9.830;2022-11-20T08:56:26;-1.80;99.90
44833;DHT22;30569;51.252;9.830;2022-11-20T08:58:52;-1.60;99.90
44833;DHT22;30569;51.252;9.830;2022-11-20T09:03:44;-1.30;99.90
44833;DHT22;30569;51.252;9.830;2022-11-20T09:06:09;-1.20;99.90
44833;DHT22;30569;51.252;9.830;2022-11-20T09:08:35;-1.30;99.90
44833;DHT22;30569;51.252;9.830;2022-11-20T09:13:28;-1.40;99.90
44833;DHT22;30569;51.252;9.830;2022-11-20T09:16:06;-1.80;99.90
44833;DHT22;30569;51.252;9.830;2022-11-20T09:18:33;-1.90;99.90
44833;DHT22;30569;51.252;9.830;2022-11-20T09:20:59;-1.30;99.90
44833;DHT22;30569;51.252;9.830;2022-11-20T09:23:26;-1.40;99.90
44833;DHT22;30569;51.252;9.830;2022-11-20T09:25:51;-1.30;99.90
44833;DHT22;30569;51.252;9.830;2022-11-20T09:28:18;-1.30;99.90
44833;DHT22;30569;51.252;9.830;2022-11-20T09:33:10;-1.20;99.90
44833;DHT22;30569;51.252;9.830;2022-11-20T09:35:35;-1.20;99.90
44833;DHT22;30569;51.252;9.830;2022-11-20T09:38:08;-1.00;99.90
44833;DHT22;30569;51.252;9.830;2022-11-20T09:40:35;-1.10;99.90
44833;DHT22;30569;51.252;9.830;2022-11-20T09:48:45;-1.30;99.90
44833;DHT22;30569;51.252;9.830;2022-11-20T09:56:35;-1.20;99.90
44833;DHT22;30569;51.252;9.830;2022-11-20T09:59:05;-1.10;99.90
44833;DHT22;30569;51.252;9.830;2022-11-20T10:01:35;-1.00;99.90
44833;DHT22;30569;51.252;9.830;2022-11-20T10:06:47;-0.70;99.90
44833;DHT22;30569;51.252;9.830;2022-11-20T10:09:34;-0.80;99.90
44833;DHT22;30569;51.252;9.830;2022-11-20T10:15:18;-0.70;99.90
44833;DHT22;30569;51.252;9.830;2022-11-20T10:18:02;-0.80;99.90
44833;DHT22;30569;51.252;9.830;2022-11-20T10:20:58;-0.80;99.90
44833;DHT22;30569;51.252;9.830;2022-11-20T10:31:46;-0.60;99.90
44833;DHT22;30569;51.252;9.830;2022-11-20T10:34:26;-0.50;99.90
44833;DHT22;30569;51.252;9.830;2022-11-20T10:37:05;-0.20;99.90
44833;DHT22;30569;51.252;9.830;2022-11-20T10:39:47;-0.20;99.90
44833;DHT22;30569;51.252;9.830;2022-11-20T10:42:22;-0.20;99.90
44833;DHT22;30569;51.252;9.830;2022-11-20T10:44:55;-0.80;99.90
44833;DHT22;30569;51.252;9.830;2022-11-20T10:47:28;-0.90;99.90
44833;DHT22;30569;51.252;9.830;2022-11-20T10:49:58;-1.40;99.90
44833;DHT22;30569;51.252;9.830;2022-11-20T11:00:13;-0.70;99.90
44833;DHT22;30569;51.252;9.830;2022-11-20T11:05:14;-0.50;99.90
44833;DHT22;30569;51.252;9.830;2022-11-20T11:12:55;-0.10;99.90
44833;DHT22;30569;51.252;9.830;2022-11-20T11:17:56;-0.60;99.90
44833;DHT22;30569;51.252;9.830;2022-11-20T11:20:23;-0.90;99.90
44833;DHT22;30569;51.252;9.830;2022-11-20T11:22:51;-0.50;99.90
44833;DHT22;30569;51.252;9.830;2022-11-20T11:25:32;-0.60;99.90
44833;DHT22;30569;51.252;9.830;2022-11-20T11:28:20;0.00;99.90
44833;DHT22;30569;51.252;9.830;2022-11-20T11:30:46;-0.10;99.90
44833;DHT22;30569;51.252;9.830;2022-11-20T11:33:28;0.00;99.90
44833;DHT22;30569;51.252;9.830;2022-11-20T11:35:58;-0.10;99.90
44833;DHT22;30569;51.252;9.830;2022-11-20T11:40:54;-0.10;99.90
44833;DHT22;30569;51.252;9.830;2022-11-20T11:43:26;0.00;99.90
44833;DHT22;30569;51.252;9.830;2022-11-20T11:48:57;0.50;99.90
44833;DHT22;30569;51.252;9.830;2022-11-20T11:51:45;0.80;99.90
44833;DHT22;30569;51.252;9.830;2022-11-20T11:54:18;0.30;99.90
44833;DHT22;30569;51.252;9.830;2022-11-20T11:56:45;0.60;99.90
44833;DHT22;30569;51.252;9.830;2022-11-20T11:59:15;0.50;99.90
44833;DHT22;30569;51.252;9.830;2022-11-20T12:01:54;0.90;99.90
44833;DHT22;30569;51.252;9.830;2022-11-20T12:04:44;1.30;99.90
44833;DHT22;30569;51.252;9.830;2022-11-20T12:07:16;1.80;99.90
44833;DHT22;30569;51.252;9.830;2022-11-20T12:09:49;1.80;99.90
44833;DHT22;30569;51.252;9.830;2022-11-20T12:12:24;1.60;99.90
44833;DHT22;30569;51.252;9.830;2022-11-20T12:14:54;1.30;99.90
44833;DHT22;30569;51.252;9.830;2022-11-20T12:17:21;0.40;99.90
44833;DHT22;30569;51.252;9.830;2022-11-20T12:19:47;0.30;99.90
44833;DHT22;30569;51.252;9.830;2022-11-20T12:25:52;0.80;99.90
44833;DHT22;30569;51.252;9.830;2022-11-20T12:34:38;0.70;99.90
44833;DHT22;30569;51.252;9.830;2022-11-20T12:37:26;0.70;99.90
44833;DHT22;30569;51.252;9.830;2022-11-20T12:39:58;0.80;99.90
44833;DHT22;30569;51.252;9.830;2022-11-20T12:46:01;1.50;99.90
44833;DHT22;30569;51.252;9.830;2022-11-20T12:48:48;1.20;99.90
44833;DHT22;30569;51.252;9.830;2022-11-20T12:55:00;1.80;99.90
44833;DHT22;30569;51.252;9.830;2022-11-20T12:57:21;1.70;99.90
44833;DHT22;30569;51.252;9.830;2022-11-20T13:00:02;1.70;99.90
44833;DHT22;30569;51.252;9.830;2022-11-20T13:07:51;1.70;99.90
44833;DHT22;30569;51.252;9.830;2022-11-20T13:13:01;1.00;99.90
44833;DHT22;30569;51.252;9.830;2022-11-20T13:18:11;0.90;99.90
44833;DHT22;30569;51.252;9.830;2022-11-20T13:20:44;0.40;99.90
44833;DHT22;30569;51.252;9.830;2022-11-20T13:23:10;0.40;99.90
44833;DHT22;30569;51.252;9.830;2022-11-20T13:25:38;0.50;99.90
44833;DHT22;30569;51.252;9.830;2022-11-20T13:30:47;0.30;99.90
44833;DHT22;30569;51.252;9.830;2022-11-20T13:33:32;0.30;99.90
44833;DHT22;30569;51.252;9.830;2022-11-20T13:36:20;0.10;99.90
44833;DHT22;30569;51.252;9.830;2022-11-20T13:38:51;-0.10;99.90
44833;DHT22;30569;51.252;9.830;2022-11-20T13:41:30;-0.20;99.90
44833;DHT22;30569;51.252;9.830;2022-11-20T13:46:45;-0.40;99.90
44833;DHT22;30569;51.252;9.830;2022-11-20T13:52:03;-0.40;99.90
44833;DHT22;30569;51.252;9.830;2022-11-20T13:57:31;-0.50;99.90
44833;DHT22;30569;51.252;9.830;2022-11-20T14:00:21;-0.50;99.90
44833;DHT22;30569;51.252;9.830;2022-11-20T14:05:35;0.20;99.90
44833;DHT22;30569;51.252;9.830;2022-11-20T14:08:03;0.80;99.90
44833;DHT22;30569;51.252;9.830;2022-11-20T14:10:30;0.80;99.90
44833;DHT22;30569;51.252;9.830;2022-11-20T14:12:57;0.70;99.90
44833;DHT22;30569;51.252;9.830;2022-11-20T14:15:33;1.00;99.90
44833;DHT22;30569;51.252;9.830;2022-11-20T14:17:59;0.70;99.90
44833;DHT22;30569;51.252;9.830;2022-11-20T14:20:38;0.40;99.90
44833;DHT22;30569;51.252;9.830;2022-11-20T14:23:04;0.00;99.90
44833;DHT22;30569;51.252;9.830;2022-11-20T14:25:30;-0.40;99.90
44833;DHT22;30569;51.252;9.830;2022-11-20T14:28:01;-0.70;99.90
44833;DHT22;30569;51.252;9.830;2022-11-20T14:30:42;-0.70;99.90
44833;DHT22;30569;51.252;9.830;2022-11-20T14:33:11;-0.80;99.90
44833;DHT22;30569;51.252;9.830;2022-11-20T14:35:44;-0.70;99.90
44833;DHT22;30569;51.252;9.830;2022-11-20T14:38:13;-0.80;99.90
44833;DHT22;30569;51.252;9.830;2022-11-20T14:43:25;-0.50;99.90
44833;DHT22;30569;51.252;9.830;2022-11-20T14:46:09;-0.30;99.90
44833;DHT22;30569;51.252;9.830;2022-11-20T14:49:00;0.20;99.90
44833;DHT22;30569;51.252;9.830;2022-11-20T14:51:42;2.60;99.90
44833;DHT22;30569;51.252;9.830;2022-11-20T14:54:15;0.70;99.90
44833;DHT22;30569;51.252;9.830;2022-11-20T14:57:03;0.70;99.90
44833;DHT22;30569;51.252;9.830;2022-11-20T14:59:31;0.60;99.90
44833;DHT22;30569;51.252;9.830;2022-11-20T15:02:05;0.70;99.90
44833;DHT22;30569;51.252;9.830;2022-11-20T15:04:31;0.80;99.90
44833;DHT22;30569;51.252;9.830;2022-11-20T15:06:58;0.80;99.90
44833;DHT22;30569;51.252;9.830;2022-11-20T15:09:24;0.80;99.90
44833;DHT22;30569;51.252;9.830;2022-11-20T15:11:58;0.80;99.90
44833;DHT22;30569;51.252;9.830;2022-11-20T15:14:25;0.80;99.90
44833;DHT22;30569;51.252;9.830;2022-11-20T15:16:52;0.50;99.90
44833;DHT22;30569;51.252;9.830;2022-11-20T15:19:24;-0.10;99.90
44833;DHT22;30569;51.252;9.830;2022-11-20T15:24:16;-0.40;99.90
44833;DHT22;30569;51.252;9.830;2022-11-20T15:26:42;0.20;99.90
44833;DHT22;30569;51.252;9.830;2022-11-20T15:29:13;-0.30;99.90
44833;DHT22;30569;51.252;9.830;2022-11-20T15:34:10;0.10;99.90
44833;DHT22;30569;51.252;9.830;2022-11-20T15:39:03;0.50;99.90
44833;DHT22;30569;51.252;9.830;2022-11-20T15:41:28;0.80;99.90
44833;DHT22;30569;51.252;9.830;2022-11-20T15:46:28;1.10;99.90
44833;DHT22;30569;51.252;9.830;2022-11-20T15:48:55;1.10;99.90
44833;DHT22;30569;51.252;9.830;2022-11-20T15:51:29;1.30;99.90
44833;DHT22;30569;51.252;9.830;2022-11-20T15:53:56;1.50;99.90
44833;DHT22;30569;51.252;9.830;2022-11-20T15:56:22;1.50;99.90
44833;DHT22;30569;51.252;9.830;2022-11-20T15:58:48;1.30;99.90
44833;DHT22;30569;51.252;9.830;2022-11-20T16:01:16;1.50;99.90
44833;DHT22;30569;51.252;9.830;2022-11-20T16:03:42;1.80;99.90
44833;DHT22;30569;51.252;9.830;2022-11-20T16:06:08;1.90;99.90
44833;DHT22;30569;51.252;9.830;2022-11-20T16:08:33;2.10;99.90
44833;DHT22;30569;51.252;9.830;2022-11-20T16:10:59;2.20;99.90
44833;DHT22;30569;51.252;9.830;2022-11-20T16:13:25;2.20;99.90
44833;DHT22;30569;51.252;9.830;2022-11-20T16:16:22;2.10;99.90
44833;DHT22;30569;51.252;9.830;2022-11-20T16:18:48;2.30;99.90
44833;DHT22;30569;51.252;9.830;2022-11-20T16:21:14;2.30;99.90
44833;DHT22;30569;51.252;9.830;2022-11-20T16:23:40;2.30;99.90
44833;DHT22;30569;51.252;9.830;2022-11-20T16:26:12;2.30;99.90
44833;DHT22;30569;51.252;9.830;2022-11-20T16:31:16;1.80;99.90
44833;DHT22;30569;51.252;9.830;2022-11-20T16:33:42;1.80;99.90
44833;DHT22;30569;51.252;9.830;2022-11-20T16:36:13;1.90;99.90
44833;DHT22;30569;51.252;9.830;2022-11-20T16:38:39;1.90;99.90
44833;DHT22;30569;51.252;9.830;2022-11-20T16:41:06;1.80;99.90
44833;DHT22;30569;51.252;9.830;2022-11-20T16:43:31;2.00;99.90
44833;DHT22;30569;51.252;9.830;2022-11-20T16:45:57;2.20;99.90
44833;DHT22;30569;51.252;9.830;2022-11-20T16:48:23;2.20;99.90
44833;DHT22;30569;51.252;9.830;2022-11-20T16:50:50;2.10;99.90
44833;DHT22;30569;51.252;9.830;2022-11-20T16:53:18;2.20;99.90
44833;DHT22;30569;51.252;9.830;2022-11-20T16:55:44;2.10;99.90
44833;DHT22;30569;51.252;9.830;2022-11-20T16:58:10;2.10;99.90
44833;DHT22;30569;51.252;9.830;2022-11-20T17:00:39;2.10;99.90
44833;DHT22;30569;51.252;9.830;2022-11-20T17:03:05;2.10;99.90
44833;DHT22;30569;51.252;9.830;2022-11-20T17:05:31;2.20;99.90
44833;DHT22;30569;51.252;9.830;2022-11-20T17:07:58;2.30;99.90
44833;DHT22;30569;51.252;9.830;2022-11-20T17:10:24;2.40;99.90
44833;DHT22;30569;51.252;9.830;2022-11-20T17:12:49;2.50;99.90
44833;DHT22;30569;51.252;9.830;2022-11-20T17:15:15;2.50;99.90
44833;DHT22;30569;51.252;9.830;2022-11-20T17:17:41;2.70;99.90
44833;DHT22;30569;51.252;9.830;2022-11-20T17:20:07;2.70;99.90
44833;DHT22;30569;51.252;9.830;2022-11-20T17:22:32;2.80;99.90
44833;DHT22;30569;51.252;9.830;2022-11-20T17:24:58;2.90;99.90
44833;DHT22;30569;51.252;9.830;2022-11-20T17:27:23;2.80;99.90
44833;DHT22;30569;51.252;9.830;2022-11-20T17:29:50;2.80;99.90
44833;DHT22;30569;51.252;9.830;2022-11-20T17:32:15;2.80;99.90
44833;DHT22;30569;51.252;9.830;2022-11-20T17:34:41;2.90;99.90
44833;DHT22;30569;51.252;9.830;2022-11-20T17:37:06;2.70;99.90
44833;DHT22;30569;51.252;9.830;2022-11-20T17:39:32;2.70;99.90
44833;DHT22;30569;51.252;9.830;2022-11-20T17:41:57;2.50;99.90
44833;DHT22;30569;51.252;9.830;2022-11-20T17:44:41;2.60;99.90
44833;DHT22;30569;51.252;9.830;2022-11-20T17:47:08;2.80;99.90
44833;DHT22;30569;51.252;9.830;2022-11-20T17:49:33;2.80;99.90
44833;DHT22;30569;51.252;9.830;2022-11-20T17:51:59;2.80;99.90
44833;DHT22;30569;51.252;9.830;2022-11-20T17:54:24;3.00;99.90
44833;DHT22;30569;51.252;9.830;2022-11-20T17:56:50;3.10;99.90
44833;DHT22;30569;51.252;9.830;2022-11-20T17:59:34;3.10;99.90
44833;DHT22;30569;51.252;9.830;2022-11-20T18:02:00;3.20;99.90
44833;DHT22;30569;51.252;9.830;2022-11-20T18:04:25;3.10;99.90
44833;DHT22;30569;51.252;9.830;2022-11-20T18:06:51;2.90;99.90
44833;DHT22;30569;51.252;9.830;2022-11-20T18:09:17;2.90;99.90
44833;DHT22;30569;51.252;9.830;2022-11-20T18:11:42;2.90;99.90
44833;DHT22;30569;51.252;9.830;2022-11-20T18:14:12;3.00;99.90
44833;DHT22;30569;51.252;9.830;2022-11-20T18:16:56;2.80;99.90
44833;DHT22;30569;51.252;9.830;2022-11-20T18:19:24;2.70;99.90
44833;DHT22;30569;51.252;9.830;2022-11-20T18:21:50;2.70;99.90
44833;DHT22;30569;51.252;9.830;2022-11-20T18:24:16;2.80;99.90
44833;DHT22;30569;51.252;9.830;2022-11-20T18:26:41;3.00;99.90
44833;DHT22;30569;51.252;9.830;2022-11-20T18:29:07;3.00;99.90
44833;DHT22;30569;51.252;9.830;2022-11-20T18:31:33;2.80;99.90
44833;DHT22;30569;51.252;9.830;2022-11-20T18:33:59;2.90;99.90
44833;DHT22;30569;51.252;9.830;2022-11-20T18:36:29;2.90;99.90
44833;DHT22;30569;51.252;9.830;2022-11-20T18:38:57;3.00;99.90
44833;DHT22;30569;51.252;9.830;2022-11-20T18:41:28;3.00;99.90
44833;DHT22;30569;51.252;9.830;2022-11-20T18:44:25;3.00;99.90
44833;DHT22;30569;51.252;9.830;2022-11-20T18:47:14;2.50;99.90
44833;DHT22;30569;51.252;9.830;2022-11-20T18:49:41;2.40;99.90
44833;DHT22;30569;51.252;9.830;2022-11-20T18:52:07;2.40;99.90
44833;DHT22;30569;51.252;9.830;2022-11-20T18:54:35;2.40;99.90
44833;DHT22;30569;51.252;9.830;2022-11-20T18:57:01;2.40;99.90
44833;DHT22;30569;51.252;9.830;2022-11-20T18:59:26;2.40;99.90
44833;DHT22;30569;51.252;9.830;2022-11-20T19:01:52;2.30;99.90
44833;DHT22;30569;51.252;9.830;2022-11-20T19:06:45;2.20;99.90
44833;DHT22;30569;51.252;9.830;2022-11-20T19:09:14;2.20;99.90
44833;DHT22;30569;51.252;9.830;2022-11-20T19:11:40;2.20;99.90
44833;DHT22;30569;51.252;9.830;2022-11-20T19:14:06;2.20;99.90
44833;DHT22;30569;51.252;9.830;2022-11-20T19:16:32;2.40;99.90
44833;DHT22;30569;51.252;9.830;2022-11-20T19:18:59;2.50;99.90
44833;DHT22;30569;51.252;9.830;2022-11-20T19:21:25;2.20;99.90
44833;DHT22;30569;51.252;9.830;2022-11-20T19:23:53;1.80;99.90
44833;DHT22;30569;51.252;9.830;2022-11-20T19:26:19;1.70;99.90